createdAt,value
2022-10-22T00:01:26.906Z,2.35
2022-10-22T00:03:54.499Z,2.05
2022-10-22T00:06:22.840Z,2.20
2022-10-22T00:08:52.081Z,2.06
2022-10-22T00:11:18.986Z,2.24
2022-10-22T00:16:13.605Z,2.32
2022-10-22T00:18:41.355Z,2.08
2022-10-22T00:21:08.447Z,2.04
2022-10-22T00:23:35.504Z,1.99
2022-10-22T00:26:04.469Z,1.84
2022-10-22T00:28:31.377Z,1.76
2022-10-22T00:31:13.389Z,1.88
2022-10-22T00:33:40.416Z,1.78
2022-10-22T00:36:07.873Z,1.56
2022-10-22T00:41:29.919Z,1.32
2022-10-22T00:46:47.888Z,1.20
2022-10-22T00:49:16.376Z,1.25
2022-10-22T00:51:44.075Z,1.32
2022-10-22T00:54:11.546Z,1.19
2022-10-22T00:56:38.695Z,1.21
2022-10-22T00:59:05.699Z,1.14
2022-10-22T01:01:32.870Z,1.34
2022-10-22T01:03:59.764Z,1.16
2022-10-22T01:06:26.391Z,1.27
2022-10-22T01:08:53.235Z,1.41
2022-10-22T01:11:20.392Z,1.53
2022-10-22T01:13:47.353Z,1.43
2022-10-22T01:16:14.868Z,1.53
2022-10-22T01:18:49.068Z,1.56
2022-10-22T01:21:19.848Z,1.48
2022-10-22T01:23:47.270Z,1.48
2022-10-22T01:26:15.600Z,1.30
2022-10-22T01:28:44.733Z,0.98
2022-10-22T01:31:13.384Z,1.37
2022-10-22T01:33:46.341Z,1.04
2022-10-22T01:36:17.322Z,0.99
2022-10-22T01:38:45.855Z,1.05
2022-10-22T01:41:12.982Z,1.12
2022-10-22T01:43:39.591Z,0.94
2022-10-22T01:46:06.558Z,1.09
2022-10-22T01:48:33.740Z,1.12
2022-10-22T01:51:00.768Z,1.01
2022-10-22T01:53:30.301Z,1.06
2022-10-22T01:55:57.221Z,1.05
2022-10-22T01:58:24.581Z,1.18
2022-10-22T02:00:51.646Z,1.39
2022-10-22T02:03:23.679Z,1.28
2022-10-22T02:05:50.799Z,1.28
2022-10-22T02:08:20.945Z,1.28
2022-10-22T02:10:50.257Z,1.34
2022-10-22T02:13:18.859Z,1.34
2022-10-22T02:15:48.451Z,1.40
2022-10-22T02:18:24.204Z,1.46
2022-10-22T02:20:51.405Z,1.33
2022-10-22T02:23:26.353Z,1.42
2022-10-22T02:25:53.251Z,1.56
2022-10-22T02:28:22.592Z,1.44
2022-10-22T02:30:53.521Z,1.33
2022-10-22T02:33:26.379Z,1.55
2022-10-22T02:35:56.412Z,1.56
2022-10-22T02:38:23.466Z,1.64
2022-10-22T02:40:50.587Z,1.58
2022-10-22T02:43:20.758Z,1.55
2022-10-22T02:45:50.409Z,1.65
2022-10-22T02:48:17.470Z,1.71
2022-10-22T02:50:58.139Z,2.30
2022-10-22T02:53:25.990Z,1.88
2022-10-22T02:55:53.103Z,1.69
2022-10-22T02:58:24.170Z,1.55
2022-10-22T03:00:52.848Z,1.73
2022-10-22T03:03:31.036Z,1.67
2022-10-22T03:06:01.108Z,1.88
2022-10-22T03:08:30.448Z,2.08
2022-10-22T03:11:05.075Z,2.19
2022-10-22T03:13:32.215Z,2.06
2022-10-22T03:15:59.422Z,1.96
2022-10-22T03:18:27.433Z,1.91
2022-10-22T03:20:59.711Z,1.99
2022-10-22T03:23:27.832Z,1.93
2022-10-22T03:25:56.468Z,2.02
2022-10-22T03:28:31.246Z,2.12
2022-10-22T03:30:58.145Z,2.36
2022-10-22T03:33:26.117Z,2.84
2022-10-22T03:35:58.879Z,2.55
2022-10-22T03:38:31.573Z,2.66
2022-10-22T03:41:06.197Z,2.86
2022-10-22T03:43:36.319Z,2.72
2022-10-22T03:46:07.685Z,2.91
2022-10-22T03:48:39.057Z,2.66
2022-10-22T03:51:08.605Z,2.49
2022-10-22T03:53:37.416Z,2.48
2022-10-22T03:56:11.461Z,2.85
2022-10-22T03:58:58.969Z,2.64
2022-10-22T04:01:31.599Z,2.26
2022-10-22T04:04:02.798Z,2.12
2022-10-22T04:06:40.105Z,2.12
2022-10-22T04:09:10.533Z,2.07
2022-10-22T04:11:42.425Z,1.94
2022-10-22T04:14:32.011Z,2.16
2022-10-22T04:17:10.429Z,2.00
2022-10-22T04:19:46.686Z,1.83
2022-10-22T04:22:20.905Z,1.65
2022-10-22T04:27:57.326Z,1.58
2022-10-22T04:30:31.403Z,1.48
2022-10-22T04:33:06.646Z,1.64
2022-10-22T04:35:52.626Z,1.52
2022-10-22T04:38:22.871Z,1.59
2022-10-22T04:40:52.069Z,1.58
2022-10-22T04:43:19.375Z,1.37
2022-10-22T04:45:46.112Z,1.46
2022-10-22T04:48:13.487Z,1.45
2022-10-22T04:50:44.464Z,1.52
2022-10-22T04:53:20.072Z,1.48
2022-10-22T04:55:48.004Z,1.58
2022-10-22T04:58:14.903Z,1.38
2022-10-22T05:00:43.010Z,1.52
2022-10-22T05:03:11.949Z,1.23
2022-10-22T05:05:39.624Z,1.12
2022-10-22T05:08:08.885Z,1.01
2022-10-22T05:10:35.764Z,1.05
2022-10-22T05:13:04.897Z,1.07
2022-10-22T05:15:34.096Z,1.20
2022-10-22T05:18:03.127Z,0.93
2022-10-22T05:20:30.907Z,1.25
2022-10-22T05:22:58.266Z,1.14
2022-10-22T05:25:25.127Z,1.10
2022-10-22T05:27:52.311Z,1.06
2022-10-22T05:30:23.025Z,1.08
2022-10-22T05:32:53.118Z,1.01
2022-10-22T05:35:20.201Z,1.04
2022-10-22T05:37:51.718Z,0.88
2022-10-22T05:40:30.419Z,1.01
2022-10-22T05:43:01.155Z,0.82
2022-10-22T05:45:35.997Z,0.88
2022-10-22T05:48:07.075Z,0.92
2022-10-22T05:50:34.079Z,0.95
2022-10-22T05:53:01.553Z,0.89
2022-10-22T05:55:28.823Z,0.89
2022-10-22T05:57:56.517Z,0.81
2022-10-22T06:00:23.519Z,1.09
2022-10-22T06:02:51.271Z,1.26
2022-10-22T06:05:24.010Z,0.98
2022-10-22T06:07:56.740Z,0.90
2022-10-22T06:10:23.797Z,0.85
2022-10-22T06:12:51.051Z,1.01
2022-10-22T06:20:51.804Z,1.06
2022-10-22T06:23:23.414Z,0.78
2022-10-22T06:25:53.225Z,0.72
2022-10-22T06:30:50.176Z,0.67
2022-10-22T06:33:28.039Z,0.74
2022-10-22T06:35:55.688Z,0.89
2022-10-22T06:38:22.740Z,0.88
2022-10-22T06:40:51.970Z,0.79
2022-10-22T06:43:21.497Z,0.76
2022-10-22T06:45:51.434Z,0.83
2022-10-22T06:48:18.411Z,0.90
2022-10-22T06:50:46.231Z,0.78
2022-10-22T06:53:13.260Z,0.91
2022-10-22T06:55:43.328Z,0.98
2022-10-22T06:58:11.295Z,1.03
2022-10-22T07:00:38.272Z,1.16
2022-10-22T07:03:05.268Z,1.04
2022-10-22T07:05:33.631Z,1.12
2022-10-22T07:08:04.115Z,1.34
2022-10-22T07:10:31.375Z,1.51
2022-10-22T07:13:04.441Z,1.18
2022-10-22T07:15:35.764Z,0.93
2022-10-22T07:18:02.907Z,1.05
2022-10-22T07:20:31.510Z,1.19
2022-10-22T07:23:00.793Z,0.96
2022-10-22T07:25:28.568Z,0.77
2022-10-22T07:28:03.746Z,0.86
2022-10-22T07:30:34.430Z,0.92
2022-10-22T07:33:02.007Z,0.89
2022-10-22T07:35:29.302Z,0.76
2022-10-22T07:37:56.211Z,1.00
2022-10-22T07:40:24.078Z,1.05
2022-10-22T07:42:50.833Z,0.96
2022-10-22T07:45:18.300Z,0.99
2022-10-22T07:47:48.177Z,0.83
2022-10-22T07:50:24.423Z,0.85
2022-10-22T07:52:57.550Z,1.17
2022-10-22T07:55:27.782Z,1.22
2022-10-22T07:57:54.794Z,0.96
2022-10-22T08:00:31.264Z,0.84
2022-10-22T08:03:00.649Z,1.03
2022-10-22T08:05:29.689Z,1.66
2022-10-22T08:08:03.300Z,1.06
2022-10-22T08:10:38.004Z,0.91
2022-10-22T08:13:08.464Z,1.36
2022-10-22T08:15:36.391Z,1.24
2022-10-22T08:18:08.380Z,1.22
2022-10-22T08:20:36.981Z,0.94
2022-10-22T08:23:31.981Z,0.77
2022-10-22T08:28:49.911Z,0.62
2022-10-22T08:31:17.107Z,0.79
2022-10-22T08:33:45.055Z,0.94
2022-10-22T08:36:25.137Z,0.83
2022-10-22T08:39:00.883Z,0.93
2022-10-22T08:41:27.617Z,0.74
2022-10-22T08:44:06.260Z,0.81
2022-10-22T08:46:34.029Z,0.88
2022-10-22T08:49:02.074Z,0.73
2022-10-22T08:51:40.285Z,0.91
2022-10-22T08:54:07.400Z,0.77
2022-10-22T08:56:34.594Z,0.86
2022-10-22T08:59:05.792Z,0.72
2022-10-22T09:01:33.479Z,0.81
2022-10-22T09:04:03.212Z,0.99
2022-10-22T09:06:41.534Z,0.82
2022-10-22T09:09:11.443Z,0.95
2022-10-22T09:11:42.491Z,0.86
2022-10-22T09:14:09.692Z,0.76
2022-10-22T09:16:39.918Z,0.77
2022-10-22T09:19:07.074Z,0.86
2022-10-22T09:21:34.092Z,0.83
2022-10-22T09:24:00.948Z,0.82
2022-10-22T09:26:28.042Z,0.71
2022-10-22T09:28:57.794Z,0.94
2022-10-22T09:31:24.770Z,0.66
2022-10-22T09:33:51.620Z,0.89
2022-10-22T09:36:18.275Z,0.73
2022-10-22T09:38:51.770Z,0.70
2022-10-22T09:41:27.343Z,0.69
2022-10-22T09:43:57.950Z,0.85
2022-10-22T09:46:25.266Z,0.68
2022-10-22T09:48:54.505Z,0.60
2022-10-22T09:51:29.253Z,0.96
2022-10-22T09:56:41.937Z,0.69
2022-10-22T10:01:54.773Z,0.61
2022-10-22T10:04:22.857Z,0.63
2022-10-22T10:06:49.880Z,0.92
2022-10-22T10:09:22.139Z,0.85
2022-10-22T10:12:00.707Z,0.81
2022-10-22T10:14:29.565Z,0.52
2022-10-22T10:17:02.963Z,0.64
2022-10-22T10:19:33.998Z,0.78
2022-10-22T10:22:04.031Z,0.62
2022-10-22T10:24:31.786Z,0.65
2022-10-22T10:27:01.026Z,0.66
2022-10-22T10:29:40.667Z,0.71
2022-10-22T10:32:13.511Z,0.96
2022-10-22T10:34:40.670Z,0.89
2022-10-22T10:39:36.818Z,0.76
2022-10-22T10:42:07.347Z,0.96
2022-10-22T10:44:34.054Z,0.92
2022-10-22T10:47:01.002Z,1.02
2022-10-22T10:49:27.962Z,0.95
2022-10-22T10:51:54.496Z,0.72
2022-10-22T10:54:21.955Z,0.66
2022-10-22T10:56:52.789Z,0.79
2022-10-22T10:59:23.815Z,0.55
2022-10-22T11:01:51.620Z,0.68
2022-10-22T11:04:20.579Z,0.65
2022-10-22T11:06:51.214Z,0.61
2022-10-22T11:09:19.159Z,0.90
2022-10-22T11:11:45.950Z,0.63
2022-10-22T11:14:12.793Z,0.82
2022-10-22T11:16:40.089Z,0.69
2022-10-22T11:19:06.728Z,0.82
2022-10-22T11:21:34.669Z,0.68
2022-10-22T11:24:02.420Z,0.58
2022-10-22T11:26:30.188Z,0.50
2022-10-22T11:28:57.521Z,0.68
2022-10-22T11:31:24.371Z,0.83
2022-10-22T11:33:52.716Z,0.80
2022-10-22T11:36:26.448Z,0.75
2022-10-22T11:38:53.308Z,0.67
2022-10-22T11:41:21.404Z,0.57
2022-10-22T11:43:48.306Z,0.64
2022-10-22T11:46:15.698Z,0.72
2022-10-22T11:48:42.545Z,1.07
2022-10-22T11:51:10.044Z,0.92
2022-10-22T11:53:38.827Z,0.62
2022-10-22T11:56:05.734Z,0.63
2022-10-22T11:58:34.385Z,0.54
2022-10-22T12:01:01.532Z,0.43
2022-10-22T12:03:30.764Z,0.32
2022-10-22T12:05:57.717Z,0.44
2022-10-22T12:08:24.827Z,0.69
2022-10-22T12:10:52.274Z,0.83
2022-10-22T12:13:19.411Z,1.57
2022-10-22T12:15:46.861Z,2.61
2022-10-22T12:20:41.795Z,1.00
2022-10-22T12:23:11.041Z,0.67
2022-10-22T12:25:38.522Z,0.67
2022-10-22T12:28:05.699Z,0.52
2022-10-22T12:30:33.326Z,0.48
2022-10-22T12:33:00.198Z,0.52
2022-10-22T12:35:27.211Z,0.52
2022-10-22T12:37:56.034Z,0.47
2022-10-22T12:40:22.561Z,0.49
2022-10-22T12:42:49.173Z,0.78
2022-10-22T12:45:16.429Z,0.92
2022-10-22T12:47:43.542Z,0.65
2022-10-22T12:53:01.059Z,0.46
2022-10-22T12:55:27.799Z,0.63
2022-10-22T12:57:54.845Z,0.47
2022-10-22T13:00:21.744Z,0.72
2022-10-22T13:02:48.455Z,0.63
2022-10-22T13:05:15.836Z,0.68
2022-10-22T13:07:42.859Z,0.50
2022-10-22T13:10:10.622Z,0.52
2022-10-22T13:12:37.743Z,0.60
2022-10-22T13:15:04.603Z,0.42
2022-10-22T13:17:31.253Z,0.48
2022-10-22T13:19:58.565Z,0.38
2022-10-22T13:22:26.526Z,0.56
2022-10-22T13:27:24.348Z,0.52
2022-10-22T13:29:51.611Z,0.52
2022-10-22T13:32:26.222Z,0.50
2022-10-22T13:34:56.207Z,0.54
2022-10-22T13:37:25.155Z,0.52
2022-10-22T13:39:55.821Z,0.50
2022-10-22T13:42:24.305Z,0.42
2022-10-22T13:44:52.003Z,0.45
2022-10-22T13:47:19.867Z,0.40
2022-10-22T13:49:50.350Z,0.37
2022-10-22T13:52:17.584Z,0.55
2022-10-22T13:54:45.395Z,0.57
2022-10-22T13:57:12.582Z,0.50
2022-10-22T13:59:39.970Z,0.43
2022-10-22T14:02:10.354Z,0.53
2022-10-22T14:04:37.909Z,0.52
2022-10-22T14:07:05.488Z,0.66
2022-10-22T14:09:34.079Z,0.45
2022-10-22T14:12:03.596Z,0.51
2022-10-22T14:14:30.724Z,0.55
2022-10-22T14:17:00.049Z,0.60
2022-10-22T14:19:28.139Z,0.68
2022-10-22T14:21:55.081Z,0.42
2022-10-22T14:24:22.027Z,0.43
2022-10-22T14:26:49.317Z,0.48
2022-10-22T14:29:17.351Z,0.99
2022-10-22T14:31:44.881Z,0.84
2022-10-22T14:34:14.297Z,0.37
2022-10-22T14:36:40.852Z,0.37
2022-10-22T14:39:07.527Z,0.53
2022-10-22T14:41:35.178Z,0.59
2022-10-22T14:44:01.827Z,0.60
2022-10-22T14:46:31.834Z,0.58
2022-10-22T14:48:59.280Z,0.67
2022-10-22T14:51:26.777Z,0.82
2022-10-22T14:53:54.222Z,0.77
2022-10-22T14:56:23.297Z,0.63
2022-10-22T14:58:50.924Z,0.53
2022-10-22T15:01:18.157Z,0.54
2022-10-22T15:03:47.576Z,0.63
2022-10-22T15:06:14.831Z,0.80
2022-10-22T15:08:41.484Z,0.57
2022-10-22T15:11:08.068Z,0.57
2022-10-22T15:13:34.931Z,0.57
2022-10-22T15:16:10.190Z,0.73
2022-10-22T15:18:38.112Z,0.67
2022-10-22T15:21:09.644Z,0.64
2022-10-22T15:23:41.312Z,0.72
2022-10-22T15:26:08.336Z,0.76
2022-10-22T15:28:38.708Z,0.84
2022-10-22T15:31:07.660Z,0.71
2022-10-22T15:33:35.714Z,0.72
2022-10-22T15:36:03.256Z,0.64
2022-10-22T15:40:59.670Z,0.74
2022-10-22T15:43:31.507Z,0.75
2022-10-22T15:46:00.393Z,0.70
2022-10-22T15:48:29.390Z,0.75
2022-10-22T15:50:56.662Z,0.90
2022-10-22T15:53:24.009Z,0.96
2022-10-22T15:55:50.737Z,1.01
2022-10-22T15:58:17.773Z,1.56
2022-10-22T16:00:45.094Z,2.31
2022-10-22T16:03:12.094Z,2.08
2022-10-22T16:05:38.990Z,1.89
2022-10-22T16:08:06.465Z,1.38
2022-10-22T16:10:33.314Z,1.27
2022-10-22T16:13:00.044Z,1.44
2022-10-22T16:15:26.988Z,1.52
2022-10-22T16:17:57.552Z,1.45
2022-10-22T16:20:25.101Z,1.35
2022-10-22T16:22:52.008Z,1.31
2022-10-22T16:25:19.224Z,1.35
2022-10-22T16:27:46.326Z,1.50
2022-10-22T16:30:18.391Z,1.35
2022-10-22T16:32:45.104Z,1.44
2022-10-22T16:35:13.358Z,1.44
2022-10-22T16:37:40.786Z,1.34
2022-10-22T16:40:08.460Z,1.49
2022-10-22T16:42:37.095Z,2.03
2022-10-22T16:45:03.921Z,2.03
2022-10-22T16:47:32.186Z,2.27
2022-10-22T16:49:59.011Z,2.34
2022-10-22T16:52:26.323Z,2.29
2022-10-22T16:54:53.345Z,2.30
2022-10-22T16:57:23.395Z,3.66
2022-10-22T16:59:50.092Z,3.31
2022-10-22T17:02:16.964Z,3.20
2022-10-22T17:04:44.462Z,3.39
2022-10-22T17:07:11.264Z,3.37
2022-10-22T17:09:38.175Z,2.96
2022-10-22T17:12:05.255Z,2.58
2022-10-22T17:14:32.565Z,2.43
2022-10-22T17:17:00.337Z,2.11
2022-10-22T17:19:27.429Z,2.13
2022-10-22T17:21:54.447Z,1.96
2022-10-22T17:24:21.234Z,1.77
2022-10-22T17:26:48.629Z,1.87
2022-10-22T17:29:17.764Z,1.79
2022-10-22T17:31:48.490Z,1.90
2022-10-22T17:34:22.700Z,1.81
2022-10-22T17:36:49.400Z,2.16
2022-10-22T17:39:16.769Z,2.86
2022-10-22T17:41:44.145Z,2.58
2022-10-22T17:44:10.930Z,2.73
2022-10-22T17:46:37.942Z,2.54
2022-10-22T17:49:06.276Z,2.72
2022-10-22T17:51:33.419Z,3.13
2022-10-22T17:54:03.420Z,3.36
2022-10-22T17:56:32.851Z,3.32
2022-10-22T17:58:59.838Z,2.86
2022-10-22T18:01:36.077Z,3.11
2022-10-22T18:04:02.788Z,8.25
2022-10-22T18:06:30.182Z,7.12
2022-10-22T18:08:58.999Z,7.24
2022-10-22T18:11:27.685Z,5.33
2022-10-22T18:13:54.626Z,5.12
2022-10-22T18:16:24.480Z,6.71
2022-10-22T18:21:39.882Z,5.30
2022-10-22T18:24:13.014Z,4.00
2022-10-22T18:26:45.601Z,3.12
2022-10-22T18:29:13.206Z,3.00
2022-10-22T18:31:40.257Z,5.14
2022-10-22T18:37:35.104Z,9.94
2022-10-22T18:40:03.408Z,9.05
2022-10-22T18:42:42.080Z,10.03
2022-10-22T18:45:19.813Z,7.84
2022-10-22T18:47:52.011Z,6.82
2022-10-22T18:50:22.518Z,7.51
2022-10-22T18:52:58.300Z,6.94
2022-10-22T18:55:27.122Z,6.44
2022-10-22T18:58:15.290Z,6.41
2022-10-22T19:01:22.219Z,6.88
2022-10-22T19:03:50.443Z,4.68
2022-10-22T19:06:19.895Z,4.33
2022-10-22T19:08:49.292Z,4.77
2022-10-22T19:11:18.966Z,5.24
2022-10-22T19:13:45.643Z,5.57
2022-10-22T19:16:14.370Z,5.58
2022-10-22T19:18:56.665Z,6.05
2022-10-22T19:21:41.566Z,6.01
2022-10-22T19:24:10.217Z,6.62
2022-10-22T19:26:39.249Z,6.00
2022-10-22T19:29:06.538Z,5.95
2022-10-22T19:31:35.151Z,5.10
2022-10-22T19:34:02.917Z,6.15
2022-10-22T19:36:29.867Z,5.96
2022-10-22T19:38:57.448Z,6.02
2022-10-22T19:41:24.289Z,7.34
2022-10-22T19:43:53.207Z,7.59
2022-10-22T19:46:20.153Z,6.27
2022-10-22T19:48:47.277Z,4.31
2022-10-22T19:51:14.718Z,3.99
2022-10-22T19:53:41.413Z,3.73
2022-10-22T19:56:10.513Z,3.92
2022-10-22T19:58:38.692Z,4.50
2022-10-22T20:01:08.203Z,5.09
2022-10-22T20:03:35.878Z,5.29
2022-10-22T20:06:04.124Z,5.41
2022-10-22T20:08:33.116Z,4.85
2022-10-22T20:11:04.677Z,3.33
2022-10-22T20:13:32.091Z,2.66
2022-10-22T20:15:58.896Z,2.31
2022-10-22T20:18:25.835Z,2.61
2022-10-22T20:20:52.902Z,2.50
2022-10-22T20:23:20.137Z,4.04
2022-10-22T20:25:46.933Z,4.66
2022-10-22T20:28:15.391Z,4.63
2022-10-22T20:30:43.898Z,3.53
2022-10-22T20:33:11.391Z,3.42
2022-10-22T20:35:38.189Z,3.43
2022-10-22T20:38:04.873Z,3.35
2022-10-22T20:40:31.853Z,3.18
2022-10-22T20:42:58.830Z,2.95
2022-10-22T20:45:25.832Z,2.88
2022-10-22T20:48:02.169Z,2.85
2022-10-22T20:50:31.776Z,2.49
2022-10-22T20:52:58.862Z,2.61
2022-10-22T20:55:27.724Z,2.32
2022-10-22T20:57:55.397Z,2.13
2022-10-22T21:00:22.496Z,2.00
2022-10-22T21:02:49.434Z,2.10
2022-10-22T21:05:16.901Z,1.82
2022-10-22T21:07:43.915Z,1.90
2022-10-22T21:10:14.631Z,1.77
2022-10-22T21:12:42.848Z,2.12
2022-10-22T21:15:12.604Z,2.24
2022-10-22T21:17:39.822Z,2.04
2022-10-22T21:20:07.108Z,2.12
2022-10-22T21:22:40.357Z,1.95
2022-10-22T21:25:15.196Z,1.95
2022-10-22T21:27:43.958Z,2.04
2022-10-22T21:30:12.435Z,1.96
2022-10-22T21:32:41.327Z,2.21
2022-10-22T21:35:10.582Z,2.22
2022-10-22T21:37:37.803Z,1.91
2022-10-22T21:40:04.489Z,1.78
2022-10-22T21:42:33.032Z,1.84
2022-10-22T21:44:59.993Z,1.90
2022-10-22T21:47:27.360Z,1.87
2022-10-22T21:49:57.726Z,1.84
2022-10-22T21:52:26.928Z,1.81
2022-10-22T21:54:54.753Z,1.81
2022-10-22T21:57:28.055Z,2.00
2022-10-22T21:59:55.619Z,1.78
2022-10-22T22:02:22.626Z,1.75
2022-10-22T22:04:50.186Z,1.85
2022-10-22T22:07:17.117Z,1.79
2022-10-22T22:09:43.822Z,1.80
2022-10-22T22:12:13.406Z,1.69
2022-10-22T22:14:40.194Z,1.41
2022-10-22T22:17:07.054Z,1.69
2022-10-22T22:19:34.193Z,1.62
2022-10-22T22:22:02.587Z,1.42
2022-10-22T22:24:29.368Z,1.59
2022-10-22T22:26:58.717Z,1.59
2022-10-22T22:29:27.514Z,1.74
2022-10-22T22:31:54.392Z,1.66
2022-10-22T22:34:23.102Z,1.82
2022-10-22T22:36:50.542Z,1.72
2022-10-22T22:39:17.912Z,1.64
2022-10-22T22:41:47.515Z,1.64
2022-10-22T22:44:15.001Z,1.48
2022-10-22T22:46:41.630Z,1.72
2022-10-22T22:49:09.469Z,1.56
2022-10-22T22:51:36.776Z,1.64
2022-10-22T22:54:07.277Z,1.72
2022-10-22T22:56:36.777Z,1.54
2022-10-22T22:59:11.891Z,1.62
2022-10-22T23:01:39.128Z,1.58
2022-10-22T23:04:10.158Z,1.49
2022-10-22T23:06:36.899Z,1.61
2022-10-22T23:09:04.211Z,1.61
2022-10-22T23:11:31.280Z,1.76
2022-10-22T23:14:02.087Z,1.62
2022-10-22T23:16:29.760Z,1.52
2022-10-22T23:18:58.422Z,1.45
2022-10-22T23:21:25.992Z,1.61
2022-10-22T23:23:52.816Z,1.69
2022-10-22T23:26:21.243Z,1.80
2022-10-22T23:28:53.388Z,1.68
2022-10-22T23:31:20.768Z,1.66
2022-10-22T23:33:47.521Z,1.74
2022-10-22T23:36:15.212Z,1.79
2022-10-22T23:38:42.118Z,1.66
2022-10-22T23:41:11.785Z,1.69
2022-10-22T23:43:38.428Z,1.68
2022-10-22T23:46:05.060Z,1.73
2022-10-22T23:48:33.402Z,1.68
2022-10-22T23:51:00.897Z,1.68
2022-10-22T23:53:27.815Z,1.63
2022-10-22T23:55:55.026Z,1.62
2022-10-22T23:58:22.550Z,1.59
